Skip Navigation Links
NOAA logo - Click to go to the NOAA homepage
NOAA's National Weather Service
Alaska Aviation Weather Unit
  NWS logo - Click to go to the NWS homepage
Left Navbar Graphic     22 AKDT = 06 GMT

   
NOAA is celebrating 200 years of science, service, and stewardship. Visit the NOAA 200th celebration Web site to learn more.
USA.gov is the U.S. Government's official Web portal to all Federal, state and local government Web resources and services.
Facebook
NWS on Facebook

Important Change Regarding the AAWU Web Presence

 

Over the last several months, the AAWU has been working to navigate its webpages to a nationally supported server. Security, as well as other needs, have necessitated the change.  We have been given an extension for the site changeover while we diligently work at addressing feedback received. As of July 14, 2017, aawu.arh.noaa.gov will be discontinued. The new AAWU web address is weather.gov/aawu. It is now live and will run in-parallel with the old site until it is discontinued on July 14, 2017. Please continue to send any feedback or questions regarding the new webpages to nws.ar.aawu.webauthors@noaa.gov.  Thank you for your patience during this time of transition.
AAWU Home :: Display TAF Add Bookmark
TAF PACD 260530Z 2606/2706 28016KT 6SM -DZ OVC007
     FM261200 29013KT 5SM BR OVC003
     FM261800 31012KT P6SM FEW003 OVC010
     FM262200 31013KT P6SM SCT010 OVC015=

PACD 260017Z 27017KT 4SM -RA BR OVC004 10/10 A3010= SPECI PACD 260017Z 27017KT 4SM -RA BR OVC004 10/10 A3010 RMK AO2 RAB02 P0000 T01000100 $= METAR PACD 260053Z AUTO 28015KT 4SM -RA BR OVC004 10/10 A3010= METAR PACD 260153Z AUTO 28018KT 5SM BR BKN004 OVC008 11/11 A3009= PACD 260205Z AUTO 27019KT 7SM -RA BKN006 OVC010 11/11 A3009= METAR PACD 260253Z AUTO 28015KT 8SM BKN006 OVC010 11/11 A3009= METAR PACD 260353Z AUTO 29017KT 6SM -RA BR OVC006 10/10 A3010= METAR PACD 260453Z AUTO 29016KT 7SM BKN007 OVC012 10/10 A3010= PACD 260545Z AUTO 29017KT 10SM SCT007 OVC013 10/10 A3010= METAR PACD 260553Z AUTO 29016KT 10SM SCT009 OVC015 10/10 A3010= PACD 260606Z AUTO 28017KT 7SM -RA FEW005 SCT010 OVC014 10/10 A3010= PACD 260624Z AUTO 28016KT 4SM -RA BR BKN007 OVC012 10/09 A3010=
 Alaska TAF Map

NOAA's National Weather Service
Alaska Aviation Weather Unit
6930 Sand Lake Road
Anchorage, AK 99502-1845
Disclaimer
Credits
Glossary
Privacy Policy
About Us
Career Opportunities
Contact AAWU Internet Services Site last modified: April, 17th 2012